createdAt,value
2023-03-13T00:01:20.807Z,69.21
2023-03-13T00:03:47.765Z,69.29
2023-03-13T00:06:15.344Z,69.53
2023-03-13T00:08:42.624Z,70.20
2023-03-13T00:11:11.084Z,70.53
2023-03-13T00:13:38.562Z,71.11
2023-03-13T00:16:08.652Z,71.00
2023-03-13T00:18:35.794Z,71.77
2023-03-13T00:21:05.394Z,71.91
2023-03-13T00:23:34.576Z,72.18
2023-03-13T00:26:05.391Z,71.99
2023-03-13T00:28:33.591Z,71.72
2023-03-13T00:31:05.204Z,71.46
2023-03-13T00:33:36.396Z,71.38
2023-03-13T00:36:07.612Z,71.08
2023-03-13T00:38:35.493Z,71.07
2023-03-13T00:41:07.236Z,70.85
2023-03-13T00:43:35.629Z,70.73
2023-03-13T00:46:02.490Z,70.73
2023-03-13T00:48:29.672Z,70.75
2023-03-13T00:50:56.722Z,70.62
2023-03-13T00:53:23.711Z,70.52
2023-03-13T00:56:01.812Z,70.78
2023-03-13T00:58:30.958Z,70.64
2023-03-13T01:00:57.753Z,70.83
2023-03-13T01:03:25.809Z,70.85
2023-03-13T01:06:00.216Z,70.46
2023-03-13T01:08:27.939Z,70.52
2023-03-13T01:11:07.515Z,70.75
2023-03-13T01:13:35.165Z,70.95
2023-03-13T01:16:07.397Z,71.24
2023-03-13T01:18:35.546Z,71.77
2023-03-13T01:21:02.670Z,71.79
2023-03-13T01:23:29.554Z,72.11
2023-03-13T01:25:57.101Z,72.37
2023-03-13T01:28:25.460Z,72.54
2023-03-13T01:30:52.942Z,72.31
2023-03-13T01:33:19.937Z,72.53
2023-03-13T01:35:47.551Z,72.68
2023-03-13T01:38:14.659Z,72.53
2023-03-13T01:40:44.349Z,72.34
2023-03-13T01:43:27.652Z,71.98
2023-03-13T01:46:00.244Z,71.55
2023-03-13T01:48:41.025Z,71.66
2023-03-13T01:51:13.243Z,71.42
2023-03-13T01:53:44.047Z,72.08
2023-03-13T01:56:17.279Z,71.65
2023-03-13T01:58:44.849Z,72.02
2023-03-13T02:01:14.450Z,71.98
2023-03-13T02:03:42.555Z,71.92
2023-03-13T02:06:10.560Z,71.50
2023-03-13T02:08:46.080Z,71.54
2023-03-13T02:11:37.285Z,71.78
2023-03-13T02:14:04.939Z,71.97
2023-03-13T02:16:34.189Z,71.67
2023-03-13T02:19:07.713Z,71.91
2023-03-13T02:21:42.831Z,71.82
2023-03-13T02:24:23.968Z,71.98
2023-03-13T02:26:50.827Z,71.74
2023-03-13T02:29:20.778Z,72.21
2023-03-13T02:31:48.846Z,72.35
2023-03-13T02:34:21.779Z,72.82
2023-03-13T02:36:50.080Z,72.85
2023-03-13T02:39:22.727Z,72.67
2023-03-13T02:41:51.694Z,73.22
2023-03-13T02:44:18.667Z,72.57
2023-03-13T02:46:52.433Z,72.25
2023-03-13T02:49:24.379Z,72.38
2023-03-13T02:51:54.585Z,72.41
2023-03-13T02:54:25.242Z,72.34
2023-03-13T02:56:58.761Z,72.63
2023-03-13T02:59:25.787Z,72.92
2023-03-13T03:01:52.921Z,72.77
2023-03-13T03:04:21.593Z,72.98
2023-03-13T03:06:54.140Z,73.34
2023-03-13T03:09:22.282Z,73.80
2023-03-13T03:11:52.309Z,73.91
2023-03-13T03:14:19.852Z,73.63
2023-03-13T03:16:48.056Z,73.24
2023-03-13T03:19:14.983Z,73.37
2023-03-13T03:21:41.832Z,73.24
2023-03-13T03:24:08.864Z,72.97
2023-03-13T03:26:36.425Z,72.76
2023-03-13T03:29:08.518Z,72.50
2023-03-13T03:31:35.509Z,73.14
2023-03-13T03:34:02.502Z,72.98
2023-03-13T03:36:29.842Z,73.43
2023-03-13T03:38:56.736Z,73.89
2023-03-13T03:41:26.476Z,73.99
2023-03-13T03:43:54.326Z,73.78
2023-03-13T03:46:25.859Z,73.85
2023-03-13T03:48:53.161Z,73.73
2023-03-13T03:51:24.099Z,73.29
2023-03-13T03:53:50.941Z,72.71
2023-03-13T03:56:17.741Z,72.33
2023-03-13T03:58:49.681Z,72.49
2023-03-13T04:01:25.443Z,72.40
2023-03-13T04:03:52.350Z,72.35
2023-03-13T04:06:19.294Z,72.08
2023-03-13T04:08:47.107Z,71.97
2023-03-13T04:11:16.231Z,71.75
2023-03-13T04:13:48.485Z,71.66
2023-03-13T04:16:15.452Z,71.84
2023-03-13T04:18:43.614Z,71.90
2023-03-13T04:21:10.590Z,71.60
2023-03-13T04:23:42.882Z,71.60
2023-03-13T04:26:09.780Z,71.93
2023-03-13T04:28:37.959Z,72.22
2023-03-13T04:31:07.522Z,71.99
2023-03-13T04:33:52.845Z,72.11
2023-03-13T04:36:30.670Z,72.29
2023-03-13T04:39:10.122Z,72.21
2023-03-13T04:41:57.263Z,72.09
2023-03-13T04:44:35.674Z,72.14
2023-03-13T04:47:15.445Z,72.13
2023-03-13T04:50:00.788Z,72.10
2023-03-13T04:52:50.379Z,72.05
2023-03-13T04:55:33.274Z,71.70
2023-03-13T04:58:07.301Z,71.41
2023-03-13T05:00:34.166Z,71.24
2023-03-13T05:03:19.658Z,71.27
2023-03-13T05:06:07.130Z,71.29
2023-03-13T05:08:39.692Z,71.33
2023-03-13T05:11:12.411Z,71.15
2023-03-13T05:13:57.414Z,70.99
2023-03-13T05:16:47.852Z,71.33
2023-03-13T05:19:37.937Z,71.15
2023-03-13T05:22:31.208Z,71.37
2023-03-13T05:25:29.974Z,71.41
2023-03-13T05:28:02.509Z,71.41
2023-03-13T05:30:47.664Z,71.40
2023-03-13T05:33:20.987Z,71.44
2023-03-13T05:36:10.678Z,71.63
2023-03-13T05:38:54.545Z,71.71
2023-03-13T05:41:56.597Z,72.19
2023-03-13T05:44:38.555Z,72.25
2023-03-13T05:47:19.470Z,72.01
2023-03-13T05:49:46.286Z,71.87
2023-03-13T05:52:34.082Z,71.90
2023-03-13T05:55:27.565Z,71.85
2023-03-13T05:58:02.692Z,71.63
2023-03-13T06:00:50.104Z,71.54
2023-03-13T06:03:52.517Z,71.41
2023-03-13T06:06:20.196Z,71.15
2023-03-13T06:08:56.016Z,70.96
2023-03-13T06:11:26.398Z,71.08
2023-03-13T06:13:53.680Z,71.31
2023-03-13T06:16:43.258Z,71.11
2023-03-13T06:19:19.237Z,70.92
2023-03-13T06:21:46.066Z,70.51
2023-03-13T06:24:12.852Z,70.06
2023-03-13T06:26:39.623Z,69.82
2023-03-13T06:29:06.436Z,69.82
2023-03-13T06:31:33.530Z,70.04
2023-03-13T06:34:00.351Z,70.16
2023-03-13T06:36:27.443Z,69.82
2023-03-13T06:38:54.240Z,69.32
2023-03-13T06:41:21.058Z,68.96
2023-03-13T06:43:47.816Z,68.84
2023-03-13T06:46:22.908Z,68.78
2023-03-13T06:48:50.410Z,68.78
2023-03-13T06:51:19.525Z,68.61
2023-03-13T06:53:47.338Z,68.31
2023-03-13T06:56:14.728Z,68.20
2023-03-13T06:58:41.569Z,67.79
2023-03-13T07:01:10.642Z,67.96
2023-03-13T07:03:38.391Z,68.16
2023-03-13T07:06:06.182Z,67.89
2023-03-13T07:08:33.276Z,69.81
2023-03-13T07:11:02.554Z,68.40
2023-03-13T07:13:29.480Z,68.01
2023-03-13T07:15:57.141Z,68.11
2023-03-13T07:18:23.998Z,67.89
2023-03-13T07:20:55.692Z,67.43
2023-03-13T07:23:24.566Z,67.52
2023-03-13T07:26:00.308Z,67.71
2023-03-13T07:28:28.736Z,67.45
2023-03-13T07:30:55.542Z,67.34
2023-03-13T07:33:22.408Z,67.20
2023-03-13T07:35:51.283Z,66.69
2023-03-13T07:38:19.516Z,66.88
2023-03-13T07:40:54.586Z,66.63
2023-03-13T07:43:22.078Z,66.60
2023-03-13T07:46:03.875Z,66.70
2023-03-13T07:48:33.458Z,66.42
2023-03-13T07:51:01.309Z,66.11
2023-03-13T07:53:28.924Z,66.30
2023-03-13T07:56:04.608Z,66.30
2023-03-13T07:58:34.687Z,66.73
2023-03-13T08:01:02.425Z,66.73
2023-03-13T08:03:30.351Z,67.16
2023-03-13T08:06:11.686Z,66.63
2023-03-13T08:08:39.446Z,66.51
2023-03-13T08:11:11.744Z,66.92
2023-03-13T08:13:39.497Z,66.51
2023-03-13T08:16:08.779Z,66.71
2023-03-13T08:18:37.078Z,66.46
2023-03-13T08:21:05.884Z,66.25
2023-03-13T08:23:33.469Z,65.77
2023-03-13T08:26:12.236Z,65.69
2023-03-13T08:28:40.167Z,65.36
2023-03-13T08:31:08.231Z,64.95
2023-03-13T08:33:35.018Z,64.65
2023-03-13T08:36:10.675Z,64.67
2023-03-13T08:38:38.233Z,64.60
2023-03-13T08:41:05.313Z,64.06
2023-03-13T08:43:32.084Z,63.87
2023-03-13T08:45:58.918Z,63.81
2023-03-13T08:48:25.718Z,63.62
2023-03-13T08:51:13.102Z,63.28
2023-03-13T08:53:41.424Z,62.96
2023-03-13T08:56:10.945Z,62.43
2023-03-13T08:58:38.023Z,62.27
2023-03-13T09:01:10.227Z,62.36
2023-03-13T09:03:37.995Z,62.15
2023-03-13T09:06:05.069Z,61.65
2023-03-13T09:08:32.958Z,61.25
2023-03-13T09:11:05.356Z,61.50
2023-03-13T09:13:35.321Z,61.06
2023-03-13T09:16:08.127Z,60.38
2023-03-13T09:18:35.981Z,60.30
2023-03-13T09:21:06.332Z,60.25
2023-03-13T09:23:33.164Z,60.24
2023-03-13T09:25:59.995Z,60.14
2023-03-13T09:28:27.391Z,59.90
2023-03-13T09:30:54.660Z,60.04
2023-03-13T09:33:25.374Z,59.89
2023-03-13T09:35:52.203Z,59.82
2023-03-13T09:38:20.933Z,59.76
2023-03-13T09:41:03.578Z,59.61
2023-03-13T09:44:00.510Z,59.53
2023-03-13T09:46:57.369Z,59.48
2023-03-13T09:49:30.593Z,59.54
2023-03-13T09:52:24.846Z,60.15
2023-03-13T09:54:54.795Z,60.60
2023-03-13T09:57:39.205Z,61.04
2023-03-13T10:00:13.978Z,61.17
2023-03-13T10:02:46.103Z,61.24
2023-03-13T10:05:24.114Z,61.51
2023-03-13T10:08:05.818Z,61.58
2023-03-13T10:10:47.751Z,61.79
2023-03-13T10:13:28.380Z,62.52
2023-03-13T10:15:56.402Z,62.43
2023-03-13T10:18:24.695Z,61.85
2023-03-13T10:20:56.924Z,61.74
2023-03-13T10:23:32.706Z,61.44
2023-03-13T10:25:59.426Z,60.78
2023-03-13T10:28:26.297Z,60.69
2023-03-13T10:31:23.663Z,60.48
2023-03-13T10:33:50.424Z,59.98
2023-03-13T10:36:19.706Z,59.88
2023-03-13T10:38:54.705Z,59.71
2023-03-13T10:41:31.900Z,60.46
2023-03-13T10:44:06.259Z,60.29
2023-03-13T10:46:35.997Z,60.37
2023-03-13T10:49:13.292Z,60.28
2023-03-13T10:51:41.018Z,60.09
2023-03-13T10:54:23.904Z,60.01
2023-03-13T10:56:52.300Z,59.91
2023-03-13T10:59:25.165Z,60.55
2023-03-13T11:01:54.237Z,60.18
2023-03-13T11:04:30.171Z,60.45
2023-03-13T11:07:33.593Z,60.40
2023-03-13T11:10:23.513Z,60.46
2023-03-13T11:12:52.939Z,60.33
2023-03-13T11:15:31.480Z,60.55
2023-03-13T11:18:06.371Z,60.39
2023-03-13T11:20:39.297Z,60.44
2023-03-13T11:23:34.472Z,60.66
2023-03-13T11:26:32.720Z,60.80
2023-03-13T11:29:11.530Z,60.75
2023-03-13T11:31:42.571Z,60.79
2023-03-13T11:34:27.767Z,60.83
2023-03-13T11:37:19.610Z,60.90
2023-03-13T11:40:08.212Z,60.70
2023-03-13T11:43:17.788Z,60.96
2023-03-13T11:46:11.722Z,60.81
2023-03-13T11:48:46.998Z,60.74
2023-03-13T11:51:36.363Z,61.36
2023-03-13T11:54:12.081Z,61.28
2023-03-13T11:56:57.892Z,61.39
2023-03-13T11:59:44.461Z,61.23
2023-03-13T12:02:26.832Z,60.98
2023-03-13T12:05:09.221Z,60.92
2023-03-13T12:07:38.342Z,61.57
2023-03-13T12:10:34.096Z,61.40
2023-03-13T12:13:19.478Z,62.07
2023-03-13T12:15:54.617Z,61.94
2023-03-13T12:18:27.486Z,61.54
2023-03-13T12:21:23.758Z,61.29
2023-03-13T12:23:57.791Z,61.18
2023-03-13T12:26:46.511Z,60.93
2023-03-13T12:29:43.101Z,60.34
2023-03-13T12:32:33.832Z,60.55
2023-03-13T12:35:12.806Z,60.39
2023-03-13T12:37:47.909Z,60.21
2023-03-13T12:40:21.472Z,60.53
2023-03-13T12:43:02.643Z,60.74
2023-03-13T12:45:30.541Z,60.12
2023-03-13T12:48:20.550Z,60.96
2023-03-13T12:50:59.538Z,60.76
2023-03-13T12:53:38.250Z,61.19
2023-03-13T12:56:23.847Z,61.39
2023-03-13T12:58:59.086Z,61.44
2023-03-13T13:01:36.433Z,61.69
2023-03-13T13:04:20.242Z,61.57
2023-03-13T13:06:51.846Z,60.57
2023-03-13T13:09:26.118Z,61.35
2023-03-13T13:11:55.432Z,61.25
2023-03-13T13:14:22.107Z,61.66
2023-03-13T13:16:52.526Z,61.43
2023-03-13T13:19:25.361Z,61.04
2023-03-13T13:22:29.771Z,60.74
2023-03-13T13:25:27.914Z,61.28
2023-03-13T13:27:55.110Z,60.83
2023-03-13T13:30:21.963Z,60.72
2023-03-13T13:32:50.195Z,60.32
2023-03-13T13:35:22.317Z,60.05
2023-03-13T13:37:49.873Z,59.88
2023-03-13T13:40:19.042Z,60.19
2023-03-13T13:43:06.474Z,60.26
2023-03-13T13:45:35.999Z,60.15
2023-03-13T13:48:25.655Z,60.23
2023-03-13T13:51:14.128Z,60.38
2023-03-13T13:54:00.463Z,60.28
2023-03-13T13:56:49.460Z,60.26
2023-03-13T13:59:22.539Z,60.52
2023-03-13T14:02:11.079Z,60.20
2023-03-13T14:04:45.078Z,60.17
2023-03-13T14:07:18.775Z,60.13
2023-03-13T14:09:48.538Z,59.77
2023-03-13T14:12:28.915Z,60.01
2023-03-13T14:15:15.587Z,59.90
2023-03-13T14:17:48.139Z,59.43
2023-03-13T14:20:30.498Z,58.97
2023-03-13T14:23:01.595Z,58.90
2023-03-13T14:25:50.147Z,59.21
2023-03-13T14:28:19.669Z,58.70
2023-03-13T14:30:48.592Z,58.45
2023-03-13T14:33:16.032Z,59.13
2023-03-13T14:35:43.545Z,59.11
2023-03-13T14:38:22.107Z,59.28
2023-03-13T14:40:50.937Z,58.96
2023-03-13T14:43:25.033Z,58.87
2023-03-13T14:45:53.542Z,58.54
2023-03-13T14:48:29.019Z,58.19
2023-03-13T14:51:15.505Z,58.27
2023-03-13T14:53:57.989Z,57.83
2023-03-13T14:56:36.827Z,57.93
2023-03-13T14:59:18.266Z,57.70
2023-03-13T15:01:46.589Z,57.53
2023-03-13T15:04:13.472Z,57.57
2023-03-13T15:06:40.260Z,57.36
2023-03-13T15:09:17.825Z,57.29
2023-03-13T15:11:54.878Z,57.72
2023-03-13T15:14:38.536Z,57.51
2023-03-13T15:17:25.756Z,58.10
2023-03-13T15:19:55.609Z,57.94
2023-03-13T15:22:28.220Z,57.96
2023-03-13T15:25:05.598Z,58.08
2023-03-13T15:27:33.767Z,58.09
2023-03-13T15:30:00.483Z,58.33
2023-03-13T15:32:37.136Z,58.57
2023-03-13T15:35:23.584Z,58.75
2023-03-13T15:37:50.675Z,58.59
2023-03-13T15:40:17.971Z,58.52
2023-03-13T15:42:44.712Z,58.63
2023-03-13T15:45:11.756Z,58.74
2023-03-13T15:47:38.599Z,58.88
2023-03-13T15:50:10.864Z,58.80
2023-03-13T15:52:37.592Z,58.95
2023-03-13T15:55:07.202Z,59.43
2023-03-13T15:57:37.939Z,59.86
2023-03-13T16:00:07.915Z,59.95
2023-03-13T16:02:34.645Z,59.64
2023-03-13T16:05:01.470Z,59.36
2023-03-13T16:07:28.308Z,59.03
2023-03-13T16:09:55.040Z,58.83
2023-03-13T16:12:21.852Z,58.87
2023-03-13T16:14:48.657Z,58.65
2023-03-13T16:17:20.662Z,58.68
2023-03-13T16:19:48.155Z,59.20
2023-03-13T16:22:15.189Z,58.73
2023-03-13T16:24:42.329Z,59.17
2023-03-13T16:27:17.775Z,58.50
2023-03-13T16:29:45.687Z,58.93
2023-03-13T16:32:16.036Z,58.72
2023-03-13T16:34:43.423Z,58.91
2023-03-13T16:37:20.934Z,59.12
2023-03-13T16:39:48.497Z,59.04
2023-03-13T16:42:15.242Z,59.18
2023-03-13T16:44:42.060Z,59.22
2023-03-13T16:47:19.284Z,59.87
2023-03-13T16:49:47.571Z,59.77
2023-03-13T16:52:16.098Z,62.11
2023-03-13T16:54:43.365Z,61.48
2023-03-13T16:57:16.879Z,60.98
2023-03-13T16:59:43.809Z,59.36
2023-03-13T17:02:19.365Z,59.30
2023-03-13T17:04:47.461Z,59.27
2023-03-13T17:07:23.378Z,59.29
2023-03-13T17:09:51.658Z,59.29
2023-03-13T17:12:19.114Z,59.28
2023-03-13T17:14:46.382Z,59.47
2023-03-13T17:17:16.777Z,59.36
2023-03-13T17:19:44.457Z,59.37
2023-03-13T17:22:16.333Z,59.02
2023-03-13T17:24:43.431Z,59.18
2023-03-13T17:27:14.722Z,58.97
2023-03-13T17:29:42.542Z,58.90
2023-03-13T17:32:15.821Z,58.83
2023-03-13T17:34:42.906Z,58.67
2023-03-13T17:37:18.468Z,58.80
2023-03-13T17:39:46.409Z,58.86
2023-03-13T17:42:13.703Z,58.57
2023-03-13T17:44:41.306Z,58.73
2023-03-13T17:47:18.222Z,58.74
2023-03-13T17:49:45.343Z,58.60
2023-03-13T17:52:15.061Z,58.78
2023-03-13T17:54:42.413Z,58.91
2023-03-13T17:57:14.450Z,59.47
2023-03-13T17:59:41.440Z,59.57
2023-03-13T18:02:12.424Z,59.70
2023-03-13T18:04:39.759Z,60.05
2023-03-13T18:07:15.980Z,60.06
2023-03-13T18:09:47.429Z,60.22
2023-03-13T18:12:15.001Z,60.29
2023-03-13T18:14:42.078Z,60.22
2023-03-13T18:17:23.433Z,60.50
2023-03-13T18:19:50.866Z,61.10
2023-03-13T18:22:24.660Z,61.17
2023-03-13T18:24:51.802Z,61.39
2023-03-13T18:27:21.217Z,61.73
2023-03-13T18:29:49.487Z,62.56
2023-03-13T18:32:18.341Z,63.74
2023-03-13T18:34:45.612Z,65.18
2023-03-13T18:37:30.815Z,66.87
2023-03-13T18:39:58.131Z,67.80
2023-03-13T18:42:25.353Z,68.42
2023-03-13T18:44:53.302Z,68.45
2023-03-13T18:47:23.628Z,68.55
2023-03-13T18:49:51.169Z,68.47
2023-03-13T18:52:18.065Z,68.74
2023-03-13T18:54:45.067Z,69.09
2023-03-13T18:57:17.618Z,68.81
2023-03-13T18:59:45.086Z,68.74
2023-03-13T19:02:14.727Z,68.75
2023-03-13T19:04:41.967Z,69.17
2023-03-13T19:07:26.180Z,69.15
2023-03-13T19:09:54.629Z,69.69
2023-03-13T19:12:21.376Z,69.63
2023-03-13T19:14:48.225Z,69.33
2023-03-13T19:17:23.182Z,68.52
2023-03-13T19:19:50.348Z,68.28
2023-03-13T19:22:17.080Z,67.95
2023-03-13T19:24:43.879Z,67.73
2023-03-13T19:27:14.634Z,67.91
2023-03-13T19:29:42.104Z,67.93
2023-03-13T19:32:16.946Z,67.93
2023-03-13T19:34:44.308Z,67.95
2023-03-13T19:37:12.745Z,68.18
2023-03-13T19:39:39.788Z,68.17
2023-03-13T19:42:07.726Z,68.13
2023-03-13T19:44:36.000Z,68.03
2023-03-13T19:47:04.566Z,68.19
2023-03-13T19:49:31.709Z,68.05
2023-03-13T19:51:58.724Z,68.29
2023-03-13T19:54:25.461Z,68.16
2023-03-13T19:56:53.615Z,68.23
2023-03-13T19:59:26.791Z,68.25
2023-03-13T20:01:55.769Z,68.16
2023-03-13T20:04:22.716Z,68.49
2023-03-13T20:06:49.516Z,68.36
2023-03-13T20:09:18.297Z,68.63
2023-03-13T20:11:45.412Z,68.73
2023-03-13T20:14:12.494Z,68.87
2023-03-13T20:16:39.526Z,68.65
2023-03-13T20:19:06.793Z,68.76
2023-03-13T20:21:36.516Z,68.94
2023-03-13T20:24:03.543Z,68.84
2023-03-13T20:26:30.567Z,68.76
2023-03-13T20:28:58.049Z,68.67
2023-03-13T20:31:28.190Z,68.76
2023-03-13T20:33:56.234Z,68.83
2023-03-13T20:36:23.964Z,69.12
2023-03-13T20:38:50.761Z,68.94
2023-03-13T20:41:21.137Z,68.69
2023-03-13T20:43:47.969Z,68.41
2023-03-13T20:46:14.846Z,68.44
2023-03-13T20:48:42.410Z,68.45
2023-03-13T20:51:09.567Z,68.58
2023-03-13T20:53:37.969Z,68.64
2023-03-13T20:56:07.179Z,68.74
2023-03-13T20:58:37.735Z,68.96
2023-03-13T21:01:06.272Z,69.04
2023-03-13T21:03:35.598Z,68.79
2023-03-13T21:06:13.535Z,68.80
2023-03-13T21:08:40.584Z,68.86
2023-03-13T21:11:16.293Z,68.70
2023-03-13T21:13:43.253Z,68.71
2023-03-13T21:16:10.952Z,68.58
2023-03-13T21:18:37.729Z,68.80
2023-03-13T21:21:15.221Z,68.77
2023-03-13T21:23:42.036Z,68.87
2023-03-13T21:26:09.118Z,68.90
2023-03-13T21:28:35.991Z,68.83
2023-03-13T21:31:18.498Z,68.83
2023-03-13T21:33:46.557Z,68.91
2023-03-13T21:36:15.628Z,69.37
2023-03-13T21:38:43.374Z,69.28
2023-03-13T21:41:12.040Z,69.35
2023-03-13T21:43:42.703Z,69.55
2023-03-13T21:46:15.572Z,69.72
2023-03-13T21:51:16.381Z,69.64
2023-03-13T21:53:44.484Z,69.93
2023-03-13T21:56:15.330Z,69.87
2023-03-13T21:58:43.617Z,69.81
2023-03-13T22:01:10.683Z,70.09
2023-03-13T22:03:38.323Z,70.04
2023-03-13T22:06:12.347Z,69.89
2023-03-13T22:08:39.636Z,64.88
2023-03-13T22:11:06.506Z,64.47
2023-03-13T22:13:33.227Z,55.52
2023-03-13T22:15:59.982Z,50.66
2023-03-13T22:18:27.087Z,48.30
2023-03-13T22:20:57.980Z,46.32
2023-03-13T22:23:25.071Z,45.59
2023-03-13T22:25:58.277Z,44.67
2023-03-13T22:28:25.723Z,43.15
2023-03-13T22:30:52.525Z,42.85
2023-03-13T22:33:19.288Z,41.65
2023-03-13T22:35:52.218Z,40.17
2023-03-13T22:38:20.689Z,39.04
2023-03-13T22:40:49.129Z,38.84
2023-03-13T22:43:15.899Z,38.56
2023-03-13T22:45:42.667Z,38.40
2023-03-13T22:48:09.451Z,38.45
2023-03-13T22:50:36.313Z,37.69
2023-03-13T22:53:03.276Z,37.80
2023-03-13T22:55:32.299Z,37.55
2023-03-13T22:57:59.969Z,37.30
2023-03-13T23:00:26.765Z,37.64
2023-03-13T23:02:54.897Z,37.54
2023-03-13T23:05:21.739Z,37.51
2023-03-13T23:07:50.865Z,37.29
2023-03-13T23:10:18.998Z,36.90
2023-03-13T23:12:45.835Z,36.51
2023-03-13T23:15:12.628Z,36.52
2023-03-13T23:17:39.495Z,36.04
2023-03-13T23:20:13.399Z,35.18
2023-03-13T23:22:41.689Z,35.15
2023-03-13T23:25:09.407Z,34.67
2023-03-13T23:27:36.505Z,34.83
2023-03-13T23:30:05.378Z,34.20
2023-03-13T23:32:37.305Z,34.49
2023-03-13T23:35:04.483Z,33.91
2023-03-13T23:37:33.294Z,33.38
2023-03-13T23:40:00.976Z,33.16
2023-03-13T23:42:28.632Z,32.57
2023-03-13T23:44:55.355Z,32.39
2023-03-13T23:47:22.118Z,32.80
2023-03-13T23:49:48.973Z,33.45
2023-03-13T23:52:15.747Z,33.69
2023-03-13T23:54:42.533Z,34.03
2023-03-13T23:57:09.250Z,34.14
2023-03-13T23:59:35.999Z,35.01
